Airfield :
LOGIN :

Register | Disclaimer

   EN    FR    IT 

 










Legend :    VFR   Marginal VFR   IFR   Intensive IFR   Very Intensive IFR
Visi :
Ceiling :
>= 8 km
>= 3000ft
5 to 8 km
1000 to 3000 ft
1500m to 5 km
500 to 1000 ft
800 to 1500m
200 to 500 ft
< 800m
< 200 ft
Symbols :   Thunderstorms  Fog  Heavy snow  Heavy precipitations  Wind > 20 kt
SIGMETs :     Misc.  Thunderstorms  Icing  Turbulence  Mountain Waves  Volcanic Ashes






- Airport Elevation : 80 ft
- IATA code : LPL


EGGP - Liverpool John Lennon

CURRENT METAR :
  • 211850Z 10013KT 9999 BKN020 06/03 Q1000

EXPIRED METARs :
  • 211820Z 10013KT 9999 BKN020 06/03 Q1000
  • 211750Z 09012KT 9999 BKN020 06/03 Q1000
  • 211720Z 09011KT 9999 BKN020 06/03 Q1001
  • 211650Z 09011KT 9999 BKN020 06/03 Q1001
  • 211620Z 10012KT 8000 SCT018 OVC022 07/04 Q1001

TAF TAF EGGP
Valid from the 21 at 18:00 until the 22 at 18:00 UTC


211657Z 2118/2218 10009KT 9999 BKN019
BECMG 2118/2121 8000 BKN012
PROB30
TEMPO 2118/2124 6000 BKN006
TEMPO 2200/2206 4000 RA BKN005
BECMG 2206/2209 9999 SCT020
TEMPO 2209/2218 6000 RA BKN014
ATIS : +44 151 907 2000 (option 5 or ext 5150)
Met : +44 871 750 5150



MET'MAP, your aeronautical weather chart ! - Copyright ORBIFLY December 2007 - Disclaimer

ORBIFLY MET'MAP TEAM :

Programming & Development : Alexandra Zaïnal
Concept & Development : Baudouin d'Aumeries
Co-Development & Prog : Marc-Olivier Méhu
Technical & hardware support : Manuel Goepfert

Contact : metmap@orbifly.com




SOURCES & CREDITS :

   NOAA